Time;durP1;ratioP1;P1;durP2;ratioP2;P2;SDS_P1;SDS_P2;PMS_P1;PMS_P2;Temp;Humidity;BMP_temperature;BMP_pressure;BME280_temperature;BME280_humidity;BME280_pressure;Samples;Min_cycle;Max_cycle;Signal;HPM_P1;HPM_P2
2023/06/02 00:00:18;;;;;;;9.45;6.28;;;;;;;-140.66;100.00;55571.53;5116785;28;20085;-77
2023/06/02 00:03:04;;;;;;;12.50;6.38;;;;;;;-140.66;100.00;55571.53;5115976;28;20027;-75
2023/06/02 00:05:50;;;;;;;8.63;6.35;;;;;;;-140.66;100.00;55571.53;5117087;28;20020;-75
2023/06/02 00:08:40;;;;;;;10.73;7.13;;;;;;;-140.66;100.00;55571.53;5115529;28;20032;-76
2023/06/02 00:11:26;;;;;;;7.47;6.20;;;;;;;-140.66;100.00;55571.53;5100816;28;20054;-76
2023/06/02 00:14:14;;;;;;;10.18;6.38;;;;;;;-140.66;100.00;55571.53;5115878;28;20028;-75
2023/06/02 00:17:00;;;;;;;8.23;6.55;;;;;;;-140.66;100.00;55571.53;5115267;28;20059;-76
2023/06/02 00:19:47;;;;;;;8.80;6.60;;;;;;;-140.66;100.00;55571.53;5115405;28;20031;-75
2023/06/02 00:22:33;;;;;;;12.77;6.85;;;;;;;-140.66;100.00;55571.53;5100269;28;20031;-76
2023/06/02 00:25:19;;;;;;;9.65;6.47;;;;;;;-140.66;100.00;55571.53;5115842;28;20028;-76
2023/06/02 00:28:05;;;;;;;9.02;6.32;;;;;;;-140.66;100.00;55571.53;5115407;28;20396;-76
2023/06/02 00:30:51;;;;;;;9.63;6.30;;;;;;;-140.66;100.00;55571.53;5115477;28;20136;-76
2023/06/02 00:33:38;;;;;;;11.70;6.28;;;;;;;-140.66;100.00;55571.53;5114246;28;20042;-76
2023/06/02 00:36:24;;;;;;;8.55;6.05;;;;;;;-140.66;100.00;55571.53;5115380;28;20038;-76
2023/06/02 00:39:10;;;;;;;9.27;6.57;;;;;;;-140.66;100.00;55571.53;5101600;28;20110;-76
2023/06/02 00:41:56;;;;;;;14.52;6.60;;;;;;;-140.66;100.00;55571.53;5100231;28;20100;-76
2023/06/02 00:44:42;;;;;;;7.88;6.35;;;;;;;-140.66;100.00;55571.53;5115189;28;20023;-76
2023/06/02 00:47:27;;;;;;;9.27;6.45;;;;;;;-140.66;100.00;55571.53;5103931;28;20016;-76
2023/06/02 00:50:13;;;;;;;10.13;6.68;;;;;;;-140.66;100.00;55571.53;5115230;28;20062;-76
2023/06/02 00:52:59;;;;;;;9.57;6.05;;;;;;;-140.66;100.00;55571.53;5124870;28;20062;-75
2023/06/02 00:55:46;;;;;;;9.32;6.50;;;;;;;-140.66;100.00;55571.53;5123131;28;20055;-75
2023/06/02 00:58:37;;;;;;;13.07;7.13;;;;;;;-140.66;100.00;55571.53;5116006;28;20062;-77
2023/06/02 01:01:23;;;;;;;10.55;6.72;;;;;;;-140.66;100.00;55571.53;5101015;28;20089;-76
2023/06/02 01:04:09;;;;;;;12.43;6.22;;;;;;;-140.66;100.00;55571.53;5114952;28;20110;-76
2023/06/02 01:07:00;;;;;;;8.65;6.80;;;;;;;-140.66;100.00;55571.53;5094987;28;20023;-76
2023/06/02 01:09:45;;;;;;;9.50;6.80;;;;;;;-140.66;100.00;55571.53;5100327;28;20070;-77
2023/06/02 01:12:32;;;;;;;11.25;6.90;;;;;;;-140.66;100.00;55571.53;5115206;28;20036;-77
2023/06/02 01:15:18;;;;;;;10.57;6.70;;;;;;;-140.66;100.00;55571.53;5114541;28;20067;-75
2023/06/02 01:18:12;;;;;;;11.07;6.22;;;;;;;-140.66;100.00;55571.53;5115687;28;20023;-75
2023/06/02 01:21:01;;;;;;;9.52;6.60;;;;;;;-140.66;100.00;55571.53;5114261;28;20117;-76
2023/06/02 01:23:49;;;;;;;20.05;7.50;;;;;;;-140.66;100.00;55571.53;5114909;28;20353;-75
2023/06/02 01:26:34;;;;;;;13.65;6.90;;;;;;;-140.66;100.00;55571.53;5113341;28;20050;-76
2023/06/02 01:29:21;;;;;;;11.50;6.97;;;;;;;-140.66;100.00;55571.53;5100396;28;20110;-75
2023/06/02 01:32:31;;;;;;;9.35;6.45;;;;;;;-140.66;100.00;55571.53;5115516;28;20115;-75
2023/06/02 01:35:21;;;;;;;9.73;6.95;;;;;;;-140.66;100.00;55571.53;5115497;28;20325;-76
2023/06/02 01:38:08;;;;;;;10.48;7.28;;;;;;;-140.66;100.00;55571.53;5113870;28;20031;-76
2023/06/02 01:40:58;;;;;;;12.60;6.55;;;;;;;-140.66;100.00;55571.53;5099706;28;20028;-76
2023/06/02 01:43:46;;;;;;;9.05;6.80;;;;;;;-140.66;100.00;55571.53;5113963;28;20357;-76
2023/06/02 01:46:33;;;;;;;15.30;6.82;;;;;;;-140.66;100.00;55571.53;5114935;28;20024;-76
2023/06/02 01:49:18;;;;;;;8.30;6.15;;;;;;;-140.66;100.00;55571.53;5114613;28;20027;-76
2023/06/02 01:52:05;;;;;;;11.13;7.15;;;;;;;-140.66;100.00;55571.53;5114482;28;20035;-76
2023/06/02 01:54:51;;;;;;;11.13;6.63;;;;;;;-140.66;100.00;55571.53;5092949;28;20348;-77
2023/06/02 01:57:36;;;;;;;10.18;6.70;;;;;;;-140.66;100.00;55571.53;5099652;28;20077;-77
2023/06/02 02:00:22;;;;;;;10.38;6.50;;;;;;;-140.66;100.00;55571.53;5113996;28;20443;-75
2023/06/02 02:03:08;;;;;;;11.30;7.72;;;;;;;-140.66;100.00;55571.53;5115018;28;20024;-76
2023/06/02 02:05:54;;;;;;;10.80;6.53;;;;;;;-140.66;100.00;55571.53;5113941;28;20019;-75
2023/06/02 02:08:39;;;;;;;15.07;7.22;;;;;;;-140.66;100.00;55571.53;5118227;28;20019;-76
2023/06/02 02:11:27;;;;;;;14.45;7.93;;;;;;;-140.66;100.00;55571.53;5118925;28;20050;-75
2023/06/02 02:14:13;;;;;;;14.35;7.80;;;;;;;-140.66;100.00;55571.53;5122570;28;20028;-76
2023/06/02 02:17:00;;;;;;;11.90;7.10;;;;;;;-140.66;100.00;55571.53;5115291;28;20123;-76
2023/06/02 02:19:50;;;;;;;9.57;6.85;;;;;;;-140.66;100.00;55571.53;5114365;28;20028;-76
2023/06/02 02:22:36;;;;;;;11.93;7.22;;;;;;;-140.66;100.00;55571.53;5086067;28;20499;-76
2023/06/02 02:25:22;;;;;;;8.00;6.68;;;;;;;-140.66;100.00;55571.53;5113790;28;20355;-76
2023/06/02 02:28:08;;;;;;;11.38;7.35;;;;;;;-140.66;100.00;55571.53;5121173;28;20039;-75
2023/06/02 02:30:54;;;;;;;8.90;7.18;;;;;;;-140.66;100.00;55571.53;5107322;28;20486;-76
2023/06/02 02:33:40;;;;;;;11.48;7.00;;;;;;;-140.66;100.00;55571.53;5114084;28;20455;-76
2023/06/02 02:36:25;;;;;;;14.52;7.40;;;;;;;-140.66;100.00;55571.53;5099207;28;20027;-76
2023/06/02 02:39:11;;;;;;;14.65;8.20;;;;;;;-140.66;100.00;55571.53;5114452;28;20035;-76
2023/06/02 02:41:57;;;;;;;11.77;7.10;;;;;;;-140.66;100.00;55571.53;5100453;28;20031;-76
2023/06/02 02:44:42;;;;;;;9.35;7.15;;;;;;;-140.66;100.00;55571.53;5113744;28;20428;-76
2023/06/02 02:47:28;;;;;;;11.30;7.18;;;;;;;-140.66;100.00;55571.53;5114315;28;20026;-75
2023/06/02 02:50:14;;;;;;;12.27;8.23;;;;;;;-140.66;100.00;55571.53;5103512;28;20105;-76
2023/06/02 02:53:01;;;;;;;11.05;8.38;;;;;;;-140.66;100.00;55571.53;5117405;28;20102;-75
2023/06/02 02:55:46;;;;;;;11.93;8.10;;;;;;;-140.66;100.00;55571.53;5116976;28;20027;-76
2023/06/02 02:58:32;;;;;;;13.50;7.82;;;;;;;-140.66;100.00;55571.53;5117088;28;20024;-77
2023/06/02 03:01:18;;;;;;;11.05;7.82;;;;;;;-140.66;100.00;55571.53;5117229;28;20114;-76
2023/06/02 03:04:04;;;;;;;9.57;7.10;;;;;;;-140.66;100.00;55571.53;5116895;28;20432;-76
2023/06/02 03:06:52;;;;;;;13.68;6.53;;;;;;;-140.66;100.00;55571.53;5116868;28;20121;-76
2023/06/02 03:09:38;;;;;;;11.98;6.45;;;;;;;-140.66;100.00;55571.53;5102166;28;20032;-76
2023/06/02 03:12:24;;;;;;;15.18;7.38;;;;;;;-140.66;100.00;55571.53;5116542;28;20047;-75
2023/06/02 03:15:10;;;;;;;12.68;7.57;;;;;;;-140.66;100.00;55571.53;5103461;28;20026;-75
2023/06/02 03:17:57;;;;;;;22.35;10.85;;;;;;;-140.66;100.00;55571.53;5116642;28;20027;-77
2023/06/02 03:20:44;;;;;;;21.27;8.60;;;;;;;-140.66;100.00;55571.53;5101701;28;20349;-75
2023/06/02 03:23:30;;;;;;;16.98;8.13;;;;;;;-140.66;100.00;55571.53;5102168;28;20360;-77
2023/06/02 03:26:16;;;;;;;16.88;8.30;;;;;;;-140.66;100.00;55571.53;5102152;28;20051;-76
2023/06/02 03:29:02;;;;;;;13.32;8.10;;;;;;;-140.66;100.00;55571.53;5117174;28;20043;-76
2023/06/02 03:31:53;;;;;;;17.65;8.45;;;;;;;-140.66;100.00;55571.53;5116588;28;20027;-76
2023/06/02 03:34:39;;;;;;;14.25;7.72;;;;;;;-140.66;100.00;55571.53;5117453;28;20119;-75
2023/06/02 03:37:25;;;;;;;12.85;8.48;;;;;;;-140.66;100.00;55571.53;5102250;28;20352;-77
2023/06/02 03:40:11;;;;;;;17.50;8.90;;;;;;;-140.66;100.00;55571.53;5117185;28;20035;-76
2023/06/02 03:42:57;;;;;;;17.92;8.98;;;;;;;-140.66;100.00;55571.53;5116510;28;20447;-78
2023/06/02 03:45:43;;;;;;;16.50;8.63;;;;;;;-140.66;100.00;55571.53;5116822;28;20020;-76
2023/06/02 03:48:29;;;;;;;20.10;9.35;;;;;;;-140.66;100.00;55571.53;5101816;28;20087;-76
2023/06/02 03:51:15;;;;;;;14.63;8.93;;;;;;;-140.66;100.00;55571.53;5102155;28;20367;-75
2023/06/02 03:54:01;;;;;;;22.65;8.48;;;;;;;-140.66;100.00;55571.53;5116110;28;20027;-76
2023/06/02 03:56:46;;;;;;;12.80;9.00;;;;;;;-140.66;100.00;55571.53;5116359;28;20058;-77
2023/06/02 03:59:33;;;;;;;15.25;9.65;;;;;;;-140.66;100.00;55571.53;5115188;28;20161;-75
2023/06/02 04:02:19;;;;;;;13.40;9.05;;;;;;;-140.66;100.00;55571.53;5102749;28;20046;-76
2023/06/02 04:05:05;;;;;;;15.57;8.60;;;;;;;-140.66;100.00;55571.53;5102567;28;20359;-76
2023/06/02 04:07:52;;;;;;;16.00;8.65;;;;;;;-140.66;100.00;55571.53;5115953;28;20089;-76
2023/06/02 04:10:38;;;;;;;20.05;9.27;;;;;;;-140.66;100.00;55571.53;5115723;28;20459;-76
2023/06/02 04:13:24;;;;;;;17.40;10.18;;;;;;;-140.66;100.00;55571.53;5116425;28;20104;-76
2023/06/02 04:16:09;;;;;;;15.05;8.55;;;;;;;-140.66;100.00;55571.53;5100526;28;20031;-75
2023/06/02 04:18:55;;;;;;;12.20;8.38;;;;;;;-140.66;100.00;55571.53;5115286;28;20354;-76
2023/06/02 04:21:41;;;;;;;21.77;8.75;;;;;;;-140.66;100.00;55571.53;5116202;28;20023;-76
2023/06/02 04:24:27;;;;;;;12.73;7.85;;;;;;;-140.66;100.00;55571.53;5115298;28;20107;-74
2023/06/02 04:27:17;;;;;;;18.33;8.73;;;;;;;-140.66;100.00;55571.53;5115744;28;20495;-75
2023/06/02 04:30:03;;;;;;;10.70;8.32;;;;;;;-140.66;100.00;55571.53;5114881;28;20059;-76
2023/06/02 04:32:49;;;;;;;14.55;8.55;;;;;;;-140.66;100.00;55571.53;5116529;28;20027;-75
2023/06/02 04:35:35;;;;;;;14.60;8.18;;;;;;;-140.66;100.00;55571.53;5101152;28;20028;-76
2023/06/02 04:38:21;;;;;;;12.55;8.85;;;;;;;-140.66;100.00;55571.53;5116300;28;20406;-76
2023/06/02 04:41:07;;;;;;;19.83;9.90;;;;;;;-140.66;100.00;55571.53;5114690;28;20043;-76
2023/06/02 04:43:52;;;;;;;15.27;9.63;;;;;;;-140.66;100.00;55571.53;5115847;28;20070;-77
2023/06/02 04:46:38;;;;;;;17.40;10.25;;;;;;;-140.66;100.00;55571.53;5114704;28;20493;-77
2023/06/02 04:49:24;;;;;;;15.02;9.18;;;;;;;-140.66;100.00;55571.53;5115308;28;20116;-76
2023/06/02 04:52:10;;;;;;;17.38;9.35;;;;;;;-140.66;100.00;55571.53;5115269;28;20024;-77
2023/06/02 04:54:55;;;;;;;13.25;8.98;;;;;;;-140.66;100.00;55571.53;5115014;28;20030;-76
2023/06/02 04:57:41;;;;;;;14.13;8.73;;;;;;;-140.66;100.00;55571.53;5136831;27;20040;-76
2023/06/02 05:00:28;;;;;;;15.23;9.20;;;;;;;-140.66;100.00;55571.53;5132154;28;20474;-76
2023/06/02 05:03:14;;;;;;;14.65;9.30;;;;;;;-140.66;100.00;55571.53;5100611;28;20515;-77
2023/06/02 05:06:00;;;;;;;13.68;9.27;;;;;;;-140.66;100.00;55571.53;5100311;28;20024;-75
2023/06/02 05:08:46;;;;;;;11.80;8.43;;;;;;;-140.66;100.00;55571.53;5099695;28;20027;-77
2023/06/02 05:11:32;;;;;;;13.25;8.80;;;;;;;-140.66;100.00;55571.53;5113833;28;20048;-77
2023/06/02 05:14:18;;;;;;;15.13;8.35;;;;;;;-140.66;100.00;55571.53;5106469;28;20026;-75
2023/06/02 05:17:04;;;;;;;12.55;8.15;;;;;;;-140.66;100.00;55571.53;5126003;28;20020;-76
2023/06/02 05:19:50;;;;;;;12.88;8.30;;;;;;;-140.66;100.00;55571.53;5114621;28;20049;-76
2023/06/02 05:22:36;;;;;;;13.07;9.07;;;;;;;-140.66;100.00;55571.53;5100023;28;20023;-77
2023/06/02 05:25:22;;;;;;;12.85;8.13;;;;;;;-140.66;100.00;55571.53;5113950;28;20027;-76
2023/06/02 05:28:08;;;;;;;10.43;7.63;;;;;;;-140.66;100.00;55571.53;5115498;28;20031;-76
2023/06/02 05:30:53;;;;;;;10.55;7.25;;;;;;;-140.66;100.00;55571.53;5114226;28;20019;-76
2023/06/02 05:33:39;;;;;;;11.88;7.22;;;;;;;-140.66;100.00;55571.53;5113837;28;20031;-76
2023/06/02 05:36:25;;;;;;;14.25;7.78;;;;;;;-140.66;100.00;55571.53;5100305;28;20052;-76
2023/06/02 05:39:11;;;;;;;13.20;6.85;;;;;;;-140.66;100.00;55571.53;5101020;28;20463;-77
2023/06/02 05:41:57;;;;;;;15.02;7.00;;;;;;;-140.66;100.00;55571.53;5099492;28;20375;-77
2023/06/02 05:44:43;;;;;;;11.75;6.90;;;;;;;-140.66;100.00;55571.53;5114450;28;20069;-76
2023/06/02 05:47:30;;;;;;;14.10;6.43;;;;;;;-140.66;100.00;55571.53;5100163;28;20045;-77
2023/06/02 05:50:16;;;;;;;13.10;6.55;;;;;;;-140.66;100.00;55571.53;5100972;28;20032;-77
2023/06/02 05:53:01;;;;;;;10.75;6.68;;;;;;;-140.66;100.00;55571.53;5114521;28;20088;-76
2023/06/02 05:55:47;;;;;;;13.88;7.03;;;;;;;-140.66;100.00;55571.53;5099569;28;20032;-77
2023/06/02 05:58:39;;;;;;;16.50;6.70;;;;;;;-140.66;100.00;55571.53;5113503;28;20183;-78
2023/06/02 06:01:24;;;;;;;12.20;6.78;;;;;;;-140.66;100.00;55571.53;5100241;28;20020;-80
2023/06/02 06:04:10;;;;;;;10.52;5.88;;;;;;;-140.66;100.00;55571.53;5113550;28;20047;-78
2023/06/02 06:06:56;;;;;;;10.95;6.60;;;;;;;-140.66;100.00;55571.53;5113591;28;20028;-78
2023/06/02 06:09:41;;;;;;;8.82;6.97;;;;;;;-140.66;100.00;55571.53;5092025;28;20098;-79
2023/06/02 06:12:27;;;;;;;8.27;6.45;;;;;;;-140.66;100.00;55571.53;5113419;28;20039;-78
2023/06/02 06:15:13;;;;;;;9.45;6.15;;;;;;;-140.66;100.00;55571.53;5113826;28;20109;-77
2023/06/02 06:17:58;;;;;;;9.57;6.32;;;;;;;-140.66;100.00;55571.53;5114204;28;20073;-76
2023/06/02 06:20:45;;;;;;;12.18;6.88;;;;;;;-140.66;100.00;55571.53;5113470;28;20026;-78
2023/06/02 06:23:31;;;;;;;13.05;7.68;;;;;;;-140.66;100.00;55571.53;5116092;28;20020;-79
2023/06/02 06:26:16;;;;;;;13.18;7.00;;;;;;;-140.66;100.00;55571.53;5118225;28;20024;-78
2023/06/02 06:29:03;;;;;;;14.90;6.75;;;;;;;-140.66;100.00;55571.53;5118260;28;20035;-77
2023/06/02 06:31:49;;;;;;;11.60;6.75;;;;;;;-140.66;100.00;55571.53;5102761;28;20027;-79
2023/06/02 06:34:35;;;;;;;12.70;6.47;;;;;;;-140.66;100.00;55571.53;5118492;28;20024;-79
2023/06/02 06:37:20;;;;;;;11.55;6.40;;;;;;;-140.66;100.00;55571.53;5102571;28;20028;-79
2023/06/02 06:40:07;;;;;;;13.10;7.43;;;;;;;-140.66;100.00;55571.53;5103015;28;20027;-78
2023/06/02 06:42:52;;;;;;;13.40;7.28;;;;;;;-140.66;100.00;55571.53;5103873;28;20110;-79
2023/06/02 06:45:38;;;;;;;10.38;6.90;;;;;;;-140.66;100.00;55571.53;5118261;28;20042;-77
2023/06/02 06:48:30;;;;;;;8.52;6.95;;;;;;;-140.66;100.00;55571.53;5118412;28;20020;-77
2023/06/02 06:51:16;;;;;;;8.70;5.82;;;;;;;-140.66;100.00;55571.53;5117679;28;20513;-78
2023/06/02 06:54:02;;;;;;;11.50;6.03;;;;;;;-140.66;100.00;55571.53;5117716;28;20360;-78
2023/06/02 06:56:48;;;;;;;9.02;6.05;;;;;;;-140.66;100.00;55571.53;5117733;28;20055;-78
2023/06/02 06:59:33;;;;;;;5.88;4.90;;;;;;;-140.66;100.00;55571.53;5131272;28;20024;-77
2023/06/02 07:02:19;;;;;;;7.95;5.40;;;;;;;-140.66;100.00;55571.53;5135342;28;20026;-76
2023/06/02 07:05:05;;;;;;;10.85;5.80;;;;;;;-140.66;100.00;55571.53;5134111;28;20401;-77
2023/06/02 07:07:51;;;;;;;10.45;5.70;;;;;;;-140.66;100.00;55571.53;5105477;28;20040;-78
2023/06/02 07:10:37;;;;;;;9.48;6.00;;;;;;;-140.66;100.00;55571.53;5103311;28;20016;-78
2023/06/02 07:13:25;;;;;;;14.20;5.85;;;;;;;-140.66;100.00;55571.53;5102129;28;20451;-77
2023/06/02 07:16:11;;;;;;;9.02;5.45;;;;;;;-140.66;100.00;55571.53;5101865;28;20126;-78
2023/06/02 07:18:57;;;;;;;7.75;5.43;;;;;;;-140.66;100.00;55571.53;5118086;28;20129;-79
2023/06/02 07:21:43;;;;;;;8.20;5.00;;;;;;;-140.66;100.00;55571.53;5127261;28;20049;-82
2023/06/02 07:24:29;;;;;;;7.82;5.13;;;;;;;-140.66;100.00;55571.53;5126446;28;20028;-83
2023/06/02 07:27:15;;;;;;;6.78;5.80;;;;;;;-140.66;100.00;55571.53;5131628;28;20019;-81
2023/06/02 07:30:02;;;;;;;10.98;6.20;;;;;;;-140.66;100.00;55571.53;5116275;28;20024;-82
2023/06/02 07:32:48;;;;;;;9.40;6.22;;;;;;;-140.66;100.00;55571.53;5133257;28;20043;-82
2023/06/02 07:35:34;;;;;;;9.75;5.97;;;;;;;-140.66;100.00;55571.53;5130875;28;20031;-82
2023/06/02 07:38:19;;;;;;;7.03;5.00;;;;;;;-140.66;100.00;55571.53;5131971;28;20035;-82
2023/06/02 07:41:05;;;;;;;8.60;5.00;;;;;;;-140.66;100.00;55571.53;5121390;28;20019;-82
2023/06/02 07:43:51;;;;;;;10.13;5.50;;;;;;;-140.66;100.00;55571.53;5135554;28;20027;-82
2023/06/02 07:46:37;;;;;;;12.20;5.07;;;;;;;-140.66;100.00;55571.53;5132917;28;20020;-81
2023/06/02 07:49:23;;;;;;;9.52;4.65;;;;;;;-140.66;100.00;55571.53;5120592;28;20049;-82
2023/06/02 07:52:08;;;;;;;7.43;4.88;;;;;;;-140.66;100.00;55571.53;5136470;28;20031;-82
2023/06/02 07:54:54;;;;;;;6.97;4.93;;;;;;;-140.66;100.00;55571.53;5139148;28;20032;-81
2023/06/02 07:57:46;;;;;;;11.52;5.28;;;;;;;-140.66;100.00;55571.53;5112243;28;20035;-81
2023/06/02 08:00:32;;;;;;;6.75;4.88;;;;;;;-140.66;100.00;55571.53;5131638;28;20028;-82
2023/06/02 08:03:18;;;;;;;6.72;5.00;;;;;;;-140.66;100.00;55571.53;5135022;28;20051;-81
2023/06/02 08:06:03;;;;;;;8.07;4.93;;;;;;;-140.66;100.00;55571.53;5120247;28;20028;-82
2023/06/02 08:08:49;;;;;;;9.55;5.35;;;;;;;-140.66;100.00;55571.53;5136593;28;20012;-81
2023/06/02 08:11:35;;;;;;;11.10;4.75;;;;;;;-140.66;100.00;55571.53;5123385;28;20044;-79
2023/06/02 08:14:21;;;;;;;8.60;5.47;;;;;;;-140.66;100.00;55571.53;5131875;28;20023;-81
2023/06/02 08:17:07;;;;;;;7.88;5.00;;;;;;;-140.66;100.00;55571.53;5120424;28;20574;-81
2023/06/02 08:19:52;;;;;;;7.95;5.47;;;;;;;-140.66;100.00;55571.53;5103257;28;20508;-81
2023/06/02 08:22:40;;;;;;;8.60;5.57;;;;;;;-140.66;100.00;55571.53;5118061;28;20451;-81
2023/06/02 08:25:26;;;;;;;10.07;5.32;;;;;;;-140.66;100.00;55571.53;5105559;28;20079;-82
2023/06/02 08:28:13;;;;;;;8.48;5.10;;;;;;;-140.66;100.00;55571.53;5103469;28;20023;-81
2023/06/02 08:31:01;;;;;;;7.57;5.28;;;;;;;-140.66;100.00;55571.53;5104221;28;20039;-81
2023/06/02 08:33:47;;;;;;;7.72;5.25;;;;;;;-140.66;100.00;55571.53;5117198;28;20448;-81
2023/06/02 08:36:33;;;;;;;7.75;4.93;;;;;;;-140.66;100.00;55571.53;5117894;28;20035;-82
2023/06/02 08:39:19;;;;;;;10.13;5.22;;;;;;;-140.66;100.00;55571.53;5101413;28;20042;-79
2023/06/02 08:42:05;;;;;;;8.68;4.70;;;;;;;-140.66;100.00;55571.53;5115920;28;20055;-80
2023/06/02 08:44:51;;;;;;;7.15;4.35;;;;;;;-140.66;100.00;55571.53;5120865;28;20031;-83
2023/06/02 08:47:42;;;;;;;6.32;4.38;;;;;;;-140.66;100.00;55571.53;5111541;28;20053;-82
2023/06/02 08:50:32;;;;;;;6.38;4.28;;;;;;;-140.66;100.00;55571.53;5111522;28;20055;-81
2023/06/02 08:53:22;;;;;;;6.30;4.60;;;;;;;-140.66;100.00;55571.53;5124991;28;20031;-81
2023/06/02 08:56:08;;;;;;;7.88;4.63;;;;;;;-140.66;100.00;55571.53;5128640;28;20074;-82
2023/06/02 08:58:53;;;;;;;8.30;4.65;;;;;;;-140.66;100.00;55571.53;5130318;28;20037;-82
2023/06/02 09:01:42;;;;;;;6.57;4.63;;;;;;;-140.66;100.00;55571.53;5117445;28;20016;-82
2023/06/02 09:04:28;;;;;;;11.38;5.10;;;;;;;-140.66;100.00;55571.53;5131899;28;20079;-82
2023/06/02 09:07:15;;;;;;;9.13;5.03;;;;;;;-140.66;100.00;55571.53;5114903;28;20023;-80
2023/06/02 09:10:03;;;;;;;9.13;4.95;;;;;;;-140.66;100.00;55571.53;5130175;28;20106;-82
2023/06/02 09:12:49;;;;;;;8.70;5.05;;;;;;;-140.66;100.00;55571.53;5130132;28;20070;-82
2023/06/02 09:15:53;;;;;;;7.10;5.05;;;;;;;-140.66;100.00;55571.53;5115025;28;20027;-83
2023/06/02 09:18:55;;;;;;;9.95;5.00;;;;;;;-140.66;100.00;55571.53;5130327;28;20047;-82
2023/06/02 09:21:41;;;;;;;5.35;4.82;;;;;;;-140.66;100.00;55571.53;5128587;28;20086;-82
2023/06/02 09:24:36;;;;;;;8.15;5.30;;;;;;;-140.66;100.00;55571.53;5130445;28;20027;-83
2023/06/02 09:27:24;;;;;;;10.15;5.28;;;;;;;-140.66;100.00;55571.53;5128427;28;20036;-82
2023/06/02 09:30:13;;;;;;;12.40;5.25;;;;;;;-140.66;100.00;55571.53;5129123;28;20024;-82
2023/06/02 09:33:05;;;;;;;7.20;5.10;;;;;;;-140.66;100.00;55571.53;5129379;28;20034;-81
2023/06/02 09:35:51;;;;;;;5.63;4.63;;;;;;;-140.66;100.00;55571.53;5127674;28;20061;-82
2023/06/02 09:38:43;;;;;;;6.95;5.45;;;;;;;-140.66;100.00;55571.53;5122293;28;20027;-81
2023/06/02 09:41:30;;;;;;;7.30;5.00;;;;;;;-140.66;100.00;55571.53;5116077;28;20027;-81
2023/06/02 09:44:51;;;;;;;12.98;5.20;;;;;;;-140.66;100.00;55571.53;5101795;28;20414;-82
2023/06/02 09:47:39;;;;;;;10.52;5.15;;;;;;;-140.66;100.00;55571.53;5117456;28;20024;-80
2023/06/02 09:50:44;;;;;;;8.70;5.18;;;;;;;-140.66;100.00;55571.53;5116966;28;20028;-81
2023/06/02 09:53:45;;;;;;;9.52;5.68;;;;;;;-140.66;100.00;55571.53;5102921;28;20043;-82
2023/06/02 09:56:36;;;;;;;6.82;5.43;;;;;;;-140.66;100.00;55571.53;5118122;28;20385;-81
2023/06/02 09:59:25;;;;;;;7.82;5.28;;;;;;;-140.66;100.00;55571.53;5120897;28;20137;-81
2023/06/02 10:02:12;;;;;;;9.70;5.47;;;;;;;-140.66;100.00;55571.53;5119684;28;20023;-78
2023/06/02 10:04:59;;;;;;;8.75;4.65;;;;;;;-140.66;100.00;55571.53;5103594;28;20388;-78
2023/06/02 10:08:12;;;;;;;8.85;5.63;;;;;;;-140.66;100.00;55571.53;5105835;28;20074;-77
2023/06/02 10:11:06;;;;;;;6.28;4.90;;;;;;;-140.66;100.00;55571.53;5118002;28;20086;-77
2023/06/02 10:14:26;;;;;;;7.35;5.05;;;;;;;-140.66;100.00;55571.53;5118033;28;20063;-78
2023/06/02 10:17:19;;;;;;;8.25;5.05;;;;;;;-140.66;100.00;55571.53;5118034;28;20096;-78
2023/06/02 10:20:47;;;;;;;7.43;4.80;;;;;;;-140.66;100.00;55571.53;5119619;28;20089;-78
2023/06/02 10:23:48;;;;;;;6.78;5.30;;;;;;;-140.66;100.00;55571.53;5112173;28;20063;-78
2023/06/02 10:26:59;;;;;;;8.80;5.32;;;;;;;-140.66;100.00;55571.53;5118119;28;20024;-78
2023/06/02 10:29:45;;;;;;;8.07;5.18;;;;;;;-140.66;100.00;55571.53;5103639;28;20092;-78
2023/06/02 10:32:43;;;;;;;8.90;4.70;;;;;;;-140.66;100.00;55571.53;5103564;28;20041;-78
2023/06/02 10:35:58;;;;;;;15.50;5.82;;;;;;;-140.66;100.00;55571.53;5103502;28;20035;-78
2023/06/02 10:38:45;;;;;;;7.88;5.00;;;;;;;-140.66;100.00;55571.53;5118159;28;20035;-78
2023/06/02 10:42:09;;;;;;;7.97;4.90;;;;;;;-140.66;100.00;55571.53;5117066;28;20031;-77
2023/06/02 10:45:16;;;;;;;5.57;4.63;;;;;;;-140.66;100.00;55571.53;5117973;28;20084;-79
2023/06/02 10:48:41;;;;;;;7.18;5.10;;;;;;;-140.66;100.00;55571.53;5117956;28;20352;-78
2023/06/02 10:52:03;;;;;;;6.25;4.80;;;;;;;-140.66;100.00;55571.53;5003843;28;20030;-77
2023/06/02 10:55:07;;;;;;;8.77;5.30;;;;;;;-140.66;100.00;55571.53;5103941;28;20028;-77
2023/06/02 10:57:55;;;;;;;7.07;5.18;;;;;;;-140.66;100.00;55571.53;5103206;28;20081;-77
2023/06/02 11:00:52;;;;;;;8.15;5.20;;;;;;;-140.66;100.00;55571.53;5100954;28;20043;-76
2023/06/02 11:03:38;;;;;;;6.53;4.95;;;;;;;-140.66;100.00;55571.53;5105568;28;20566;-74
2023/06/02 11:06:25;;;;;;;11.13;5.10;;;;;;;-140.66;100.00;55571.53;5131044;28;20055;-75
2023/06/02 11:09:34;;;;;;;6.15;4.97;;;;;;;-140.66;100.00;55571.53;5104106;28;20032;-74
2023/06/02 11:12:21;;;;;;;8.25;5.20;;;;;;;-140.66;100.00;55571.53;5098793;28;20421;-75
2023/06/02 11:15:10;;;;;;;7.90;5.32;;;;;;;-140.66;100.00;55571.53;5097770;28;20036;-74
2023/06/02 11:17:56;;;;;;;6.07;4.63;;;;;;;-140.66;100.00;55571.53;5098302;28;20096;-74
2023/06/02 11:20:46;;;;;;;6.70;5.00;;;;;;;-140.66;100.00;55571.53;5115425;28;20099;-74
2023/06/02 11:23:32;;;;;;;7.70;5.05;;;;;;;-140.66;100.00;55571.53;5103430;28;20035;-75
2023/06/02 11:26:19;;;;;;;7.18;5.22;;;;;;;-140.66;100.00;55571.53;5118995;28;20064;-73
2023/06/02 11:29:15;;;;;;;7.95;5.15;;;;;;;-140.66;100.00;55571.53;5119955;28;20042;-75
2023/06/02 11:32:20;;;;;;;8.88;4.90;;;;;;;-140.66;100.00;55571.53;5099692;28;20031;-74
2023/06/02 11:35:09;;;;;;;7.75;5.30;;;;;;;-140.66;100.00;55571.53;5098291;28;20459;-75
2023/06/02 11:38:08;;;;;;;6.00;4.90;;;;;;;-140.66;100.00;55571.53;5102775;28;20445;-74
2023/06/02 11:40:53;;;;;;;11.30;5.00;;;;;;;-140.66;100.00;55571.53;5117394;28;20032;-74
2023/06/02 11:43:41;;;;;;;7.10;4.75;;;;;;;-140.66;100.00;55571.53;5102075;28;20047;-74
2023/06/02 11:46:27;;;;;;;10.35;5.03;;;;;;;-140.66;100.00;55571.53;5102905;28;20024;-74
2023/06/02 11:49:14;;;;;;;62.40;8.77;;;;;;;-140.66;100.00;55571.53;5116911;28;20054;-74
2023/06/02 11:52:00;;;;;;;6.90;4.88;;;;;;;-140.66;100.00;55571.53;5122967;28;20027;-79
2023/06/02 11:54:55;;;;;;;10.82;4.65;;;;;;;-140.66;100.00;55571.53;5106492;28;20096;-79
2023/06/02 11:57:43;;;;;;;9.13;5.00;;;;;;;-140.66;100.00;55571.53;5120747;28;20028;-79
2023/06/02 12:00:30;;;;;;;8.40;5.03;;;;;;;-140.66;100.00;55571.53;5121639;28;20043;-79
2023/06/02 12:03:15;;;;;;;11.25;4.68;;;;;;;-140.66;100.00;55571.53;5122716;28;20023;-77
2023/06/02 12:06:15;;;;;;;6.13;5.00;;;;;;;-140.66;100.00;55571.53;5107292;28;20031;-79
2023/06/02 12:09:12;;;;;;;10.90;4.90;;;;;;;-140.66;100.00;55571.53;5120507;28;20031;-79
2023/06/02 12:12:18;;;;;;;5.82;5.07;;;;;;;-140.66;100.00;55571.53;5125697;28;20043;-79
2023/06/02 12:15:15;;;;;;;6.25;5.05;;;;;;;-140.66;100.00;55571.53;5122458;28;20080;-78
2023/06/02 12:18:06;;;;;;;6.80;5.13;;;;;;;-140.66;100.00;55571.53;5122678;28;20451;-79
2023/06/02 12:20:53;;;;;;;5.60;5.00;;;;;;;-140.66;100.00;55571.53;5107011;28;20020;-79
2023/06/02 12:23:47;;;;;;;5.35;4.85;;;;;;;-140.66;100.00;55571.53;5122537;28;20020;-79
2023/06/02 12:26:45;;;;;;;13.18;5.30;;;;;;;-140.66;100.00;55571.53;5107616;28;20054;-78
2023/06/02 12:29:31;;;;;;;6.43;4.70;;;;;;;-140.66;100.00;55571.53;5107252;28;20023;-81
2023/06/02 12:32:27;;;;;;;5.93;4.80;;;;;;;-140.66;100.00;55571.53;5117986;28;20023;-79
2023/06/02 12:35:12;;;;;;;12.13;5.78;;;;;;;-140.66;100.00;55571.53;5124452;28;20027;-78
2023/06/02 12:37:58;;;;;;;5.47;4.85;;;;;;;-140.66;100.00;55571.53;5124881;28;20224;-79
2023/06/02 12:40:44;;;;;;;6.70;5.10;;;;;;;-140.66;100.00;55571.53;5112166;28;20345;-79